createdAt,value
2023-04-25T00:01:39.093Z,7.78
2023-04-25T00:04:09.258Z,7.03
2023-04-25T00:06:37.369Z,6.68
2023-04-25T00:09:08.552Z,6.90
2023-04-25T00:11:36.374Z,6.28
2023-04-25T00:14:04.437Z,5.75
2023-04-25T00:16:35.940Z,5.47
2023-04-25T00:19:04.392Z,5.72
2023-04-25T00:21:32.792Z,6.30
2023-04-25T00:24:01.659Z,5.80
2023-04-25T00:26:29.258Z,6.43
2023-04-25T00:28:56.808Z,5.53
2023-04-25T00:31:24.389Z,5.43
2023-04-25T00:33:52.047Z,5.97
2023-04-25T00:36:24.771Z,6.03
2023-04-25T00:38:52.095Z,4.90
2023-04-25T00:41:20.702Z,5.75
2023-04-25T00:43:50.154Z,4.28
2023-04-25T00:46:17.984Z,6.50
2023-04-25T00:48:45.358Z,5.60
2023-04-25T00:51:17.561Z,5.85
2023-04-25T00:53:45.953Z,6.40
2023-04-25T00:56:13.687Z,5.93
2023-04-25T00:58:42.370Z,5.55
2023-04-25T01:01:10.450Z,6.25
2023-04-25T01:03:43.968Z,7.60
2023-04-25T01:06:11.724Z,5.88
2023-04-25T01:08:40.469Z,6.40
2023-04-25T01:11:07.920Z,5.00
2023-04-25T01:13:36.045Z,6.00
2023-04-25T01:16:04.439Z,5.65
2023-04-25T01:18:31.897Z,4.80
2023-04-25T01:21:11.166Z,5.30
2023-04-25T01:23:41.379Z,6.55
2023-04-25T01:26:12.811Z,5.18
2023-04-25T01:28:43.999Z,6.47
2023-04-25T01:31:12.675Z,3.78
2023-04-25T01:33:40.283Z,4.18
2023-04-25T01:36:07.813Z,4.55
2023-04-25T01:38:36.211Z,5.35
2023-04-25T01:41:03.932Z,6.40
2023-04-25T01:43:31.338Z,5.30
2023-04-25T01:45:58.904Z,5.32
2023-04-25T01:48:26.268Z,5.43
2023-04-25T01:50:53.613Z,5.20
2023-04-25T01:53:21.208Z,6.15
2023-04-25T01:55:48.529Z,4.68
2023-04-25T01:58:15.885Z,5.50
2023-04-25T02:00:43.207Z,6.47
2023-04-25T02:03:10.643Z,5.05
2023-04-25T02:05:41.525Z,5.38
2023-04-25T02:08:10.286Z,5.63
2023-04-25T02:10:37.885Z,7.60
2023-04-25T02:13:06.342Z,14.68
2023-04-25T02:15:33.976Z,68.22
2023-04-25T02:18:01.406Z,57.70
2023-04-25T02:20:31.277Z,52.10
2023-04-25T02:22:58.765Z,78.22
2023-04-25T02:25:26.227Z,14.45
2023-04-25T02:27:53.600Z,8.98
2023-04-25T02:30:20.916Z,5.22
2023-04-25T02:32:48.306Z,5.40
2023-04-25T02:35:15.699Z,4.93
2023-04-25T02:37:43.694Z,4.55
2023-04-25T02:40:11.363Z,5.25
2023-04-25T02:42:38.636Z,5.05
2023-04-25T02:45:06.471Z,5.32
2023-04-25T02:47:33.904Z,5.50
2023-04-25T02:50:03.318Z,4.70
2023-04-25T02:52:30.683Z,5.00
2023-04-25T02:54:57.969Z,4.90
2023-04-25T02:57:25.414Z,4.55
2023-04-25T02:59:52.714Z,4.85
2023-04-25T03:02:20.136Z,5.10
2023-04-25T03:04:47.881Z,6.20
2023-04-25T03:07:15.237Z,5.55
2023-04-25T03:09:42.580Z,6.20
2023-04-25T03:12:09.854Z,5.38
2023-04-25T03:14:37.120Z,6.32
2023-04-25T03:17:04.401Z,5.05
2023-04-25T03:19:31.662Z,5.45
2023-04-25T03:21:59.062Z,5.40
2023-04-25T03:24:28.172Z,4.90
2023-04-25T03:26:55.679Z,5.93
2023-04-25T03:29:25.822Z,5.35
2023-04-25T03:31:53.182Z,4.55
2023-04-25T03:34:22.422Z,5.03
2023-04-25T03:36:49.896Z,5.20
2023-04-25T03:39:17.381Z,5.28
2023-04-25T03:41:45.864Z,5.50
2023-04-25T03:44:13.800Z,5.47
2023-04-25T03:46:41.342Z,4.80
2023-04-25T03:49:08.968Z,5.13
2023-04-25T03:51:36.328Z,5.13
2023-04-25T03:54:03.809Z,4.85
2023-04-25T03:56:31.627Z,4.85
2023-04-25T03:58:58.889Z,5.30
2023-04-25T04:01:26.419Z,6.00
2023-04-25T04:03:54.260Z,5.43
2023-04-25T04:06:22.194Z,5.22
2023-04-25T04:08:49.507Z,5.35
2023-04-25T04:11:16.992Z,4.95
2023-04-25T04:13:44.548Z,5.90
2023-04-25T04:16:12.295Z,5.70
2023-04-25T04:18:39.938Z,5.35
2023-04-25T04:21:07.248Z,5.00
2023-04-25T04:23:34.917Z,5.47
2023-04-25T04:26:02.258Z,5.00
2023-04-25T04:28:29.608Z,6.18
2023-04-25T04:30:57.295Z,9.75
2023-04-25T04:33:24.643Z,8.07
2023-04-25T04:35:54.659Z,9.40
2023-04-25T04:38:23.047Z,6.78
2023-04-25T04:40:51.329Z,8.23
2023-04-25T04:43:19.814Z,5.18
2023-04-25T04:45:47.108Z,8.90
2023-04-25T04:48:15.225Z,9.90
2023-04-25T04:50:46.573Z,6.95
2023-04-25T04:53:14.155Z,10.60
2023-04-25T04:55:42.284Z,9.95
2023-04-25T04:58:10.021Z,10.48
2023-04-25T05:00:37.349Z,7.93
2023-04-25T05:03:04.798Z,9.55
2023-04-25T05:05:32.355Z,6.28
2023-04-25T05:07:59.957Z,4.97
2023-04-25T05:10:27.314Z,5.55
2023-04-25T05:12:54.668Z,6.10
2023-04-25T05:15:21.985Z,5.82
2023-04-25T05:17:49.339Z,6.07
2023-04-25T05:20:16.864Z,7.38
2023-04-25T05:22:44.209Z,6.80
2023-04-25T05:25:12.024Z,6.55
2023-04-25T05:27:39.807Z,7.88
2023-04-25T05:30:08.090Z,6.65
2023-04-25T05:32:35.606Z,7.97
2023-04-25T05:35:03.937Z,7.63
2023-04-25T05:37:32.379Z,7.05
2023-04-25T05:39:59.893Z,6.00
2023-04-25T05:42:27.262Z,6.75
2023-04-25T05:44:54.752Z,7.65
2023-04-25T05:47:22.166Z,4.70
2023-04-25T05:49:49.686Z,4.65
2023-04-25T05:52:17.497Z,5.72
2023-04-25T05:54:44.772Z,5.43
2023-04-25T05:57:21.991Z,5.45
2023-04-25T05:59:49.363Z,4.90
2023-04-25T06:02:17.313Z,4.57
2023-04-25T06:04:44.898Z,6.75
2023-04-25T06:07:12.308Z,5.03
2023-04-25T06:09:40.653Z,5.18
2023-04-25T06:12:08.332Z,5.45
2023-04-25T06:14:36.031Z,5.78
2023-04-25T06:17:07.533Z,6.10
2023-04-25T06:19:35.474Z,5.75
2023-04-25T06:22:03.611Z,6.18
2023-04-25T06:24:30.915Z,5.15
2023-04-25T06:26:58.360Z,6.72
2023-04-25T06:29:25.764Z,5.10
2023-04-25T06:31:53.455Z,6.15
2023-04-25T06:34:21.987Z,5.97
2023-04-25T06:36:49.354Z,6.25
2023-04-25T06:39:17.472Z,6.78
2023-04-25T06:41:44.789Z,5.60
2023-04-25T06:44:12.105Z,5.68
2023-04-25T06:46:39.430Z,6.18
2023-04-25T06:49:06.924Z,4.90
2023-04-25T06:51:34.268Z,5.90
2023-04-25T06:54:01.554Z,5.82
2023-04-25T06:56:30.939Z,6.40
2023-04-25T06:58:58.265Z,4.65
2023-04-25T07:01:25.883Z,5.93
2023-04-25T07:03:53.510Z,5.50
2023-04-25T07:06:21.091Z,5.93
2023-04-25T07:08:48.737Z,5.82
2023-04-25T07:11:16.346Z,6.45
2023-04-25T07:13:43.637Z,5.65
2023-04-25T07:16:10.981Z,6.95
2023-04-25T07:18:38.333Z,6.93
2023-04-25T07:21:05.970Z,6.07
2023-04-25T07:23:33.512Z,5.63
2023-04-25T07:26:01.334Z,5.22
2023-04-25T07:28:28.692Z,5.25
2023-04-25T07:30:56.225Z,6.35
2023-04-25T07:33:24.877Z,5.43
2023-04-25T07:35:53.470Z,6.45
2023-04-25T07:38:20.778Z,6.03
2023-04-25T07:40:49.456Z,5.55
2023-04-25T07:43:17.862Z,4.25
2023-04-25T07:45:46.048Z,4.88
2023-04-25T07:48:19.603Z,4.97
2023-04-25T07:50:46.944Z,5.28
2023-04-25T07:53:14.400Z,5.10
2023-04-25T07:55:41.856Z,4.05
2023-04-25T07:58:10.000Z,4.72
2023-04-25T08:00:37.546Z,4.72
2023-04-25T08:03:05.142Z,4.22
2023-04-25T08:05:32.823Z,4.70
2023-04-25T08:08:00.482Z,4.55
2023-04-25T08:10:27.864Z,4.93
2023-04-25T08:12:55.156Z,4.32
2023-04-25T08:15:22.437Z,4.15
2023-04-25T08:17:49.748Z,4.85
2023-04-25T08:20:17.227Z,5.15
2023-04-25T08:22:44.690Z,6.22
2023-04-25T08:25:12.011Z,6.03
2023-04-25T08:27:39.646Z,4.80
2023-04-25T08:30:09.392Z,4.00
2023-04-25T08:32:39.197Z,5.28
2023-04-25T08:35:07.782Z,4.80
2023-04-25T08:37:47.802Z,4.07
2023-04-25T08:40:16.635Z,3.25
2023-04-25T08:42:44.163Z,4.72
2023-04-25T08:45:11.934Z,4.28
2023-04-25T08:47:41.013Z,3.92
2023-04-25T08:50:08.924Z,3.70
2023-04-25T08:52:40.809Z,4.38
2023-04-25T08:55:10.662Z,4.03
2023-04-25T08:57:38.497Z,4.60
2023-04-25T09:00:09.272Z,5.32
2023-04-25T09:02:38.304Z,4.28
2023-04-25T09:05:07.706Z,4.07
2023-04-25T09:07:35.292Z,4.50
2023-04-25T09:10:04.561Z,5.05
2023-04-25T09:12:32.821Z,4.03
2023-04-25T09:15:12.074Z,4.90
2023-04-25T09:17:45.386Z,3.47
2023-04-25T09:20:14.759Z,5.28
2023-04-25T09:22:43.992Z,4.05
2023-04-25T09:25:13.509Z,3.28
2023-04-25T09:27:55.723Z,3.47
2023-04-25T09:30:36.732Z,3.97
2023-04-25T09:33:08.806Z,3.00
2023-04-25T09:35:44.698Z,3.53
2023-04-25T09:38:14.570Z,3.65
2023-04-25T09:40:48.381Z,4.32
2023-04-25T09:43:26.630Z,3.10
2023-04-25T09:46:00.658Z,4.68
2023-04-25T09:48:52.035Z,2.92
2023-04-25T09:51:19.346Z,2.90
2023-04-25T09:53:51.011Z,4.13
2023-04-25T09:56:20.972Z,2.88
2023-04-25T09:58:49.681Z,2.92
2023-04-25T10:01:18.058Z,3.08
2023-04-25T10:03:48.077Z,3.75
2023-04-25T10:06:21.498Z,3.05
2023-04-25T10:08:52.419Z,3.40
2023-04-25T10:11:20.157Z,2.42
2023-04-25T10:13:50.191Z,3.20
2023-04-25T10:16:17.828Z,2.42
2023-04-25T10:18:45.116Z,3.20
2023-04-25T10:21:13.102Z,2.42
2023-04-25T10:23:41.307Z,3.70
2023-04-25T10:26:13.760Z,3.22
2023-04-25T10:28:58.973Z,2.13
2023-04-25T10:31:26.937Z,3.45
2023-04-25T10:33:54.963Z,2.85
2023-04-25T10:36:24.013Z,3.83
2023-04-25T10:38:52.359Z,3.15
2023-04-25T10:41:22.515Z,2.85
2023-04-25T10:43:51.916Z,3.00
2023-04-25T10:46:27.346Z,2.17
2023-04-25T10:48:57.124Z,3.08
2023-04-25T10:51:40.096Z,3.28
2023-04-25T10:54:19.206Z,3.58
2023-04-25T10:56:48.087Z,3.60
2023-04-25T10:59:16.968Z,2.90
2023-04-25T11:01:46.067Z,3.13
2023-04-25T11:04:30.908Z,3.00
2023-04-25T11:07:08.424Z,3.88
2023-04-25T11:09:37.208Z,3.28
2023-04-25T11:12:05.135Z,3.55
2023-04-25T11:14:32.849Z,4.15
2023-04-25T11:17:01.290Z,3.80
2023-04-25T11:19:30.078Z,3.03
2023-04-25T11:22:02.207Z,2.92
2023-04-25T11:24:31.308Z,2.97
2023-04-25T11:27:06.955Z,3.00
2023-04-25T11:29:36.066Z,2.85
2023-04-25T11:32:03.749Z,2.72
2023-04-25T11:34:33.824Z,2.63
2023-04-25T11:37:03.103Z,3.00
2023-04-25T11:39:30.995Z,2.85
2023-04-25T11:41:59.678Z,2.83
2023-04-25T11:44:29.623Z,3.17
2023-04-25T11:46:56.986Z,3.30
2023-04-25T11:49:25.920Z,3.00
2023-04-25T11:51:53.361Z,2.60
2023-04-25T11:54:20.880Z,3.17
2023-04-25T11:56:48.625Z,2.38
2023-04-25T11:59:18.558Z,2.20
2023-04-25T12:01:51.033Z,3.42
2023-04-25T12:04:24.110Z,2.13
2023-04-25T12:06:53.974Z,2.92
2023-04-25T12:09:29.406Z,3.33
2023-04-25T12:11:59.414Z,3.10
2023-04-25T12:14:28.716Z,3.42
2023-04-25T12:17:01.674Z,2.33
2023-04-25T12:19:37.207Z,2.50
2023-04-25T12:22:20.129Z,3.73
2023-04-25T12:24:47.868Z,3.30
2023-04-25T12:27:20.252Z,2.55
2023-04-25T12:29:56.790Z,2.28
2023-04-25T12:34:52.508Z,3.10
2023-04-25T12:37:20.004Z,2.65
2023-04-25T12:39:47.329Z,3.13
2023-04-25T12:42:14.707Z,2.03
2023-04-25T12:44:42.567Z,2.83
2023-04-25T12:47:10.649Z,2.28
2023-04-25T12:49:38.272Z,2.85
2023-04-25T12:52:06.146Z,2.90
2023-04-25T12:54:33.603Z,2.28
2023-04-25T12:57:02.635Z,2.75
2023-04-25T12:59:29.968Z,2.95
2023-04-25T13:01:57.282Z,2.80
2023-04-25T13:04:24.930Z,2.22
2023-04-25T13:06:52.487Z,3.35
2023-04-25T13:09:20.007Z,3.08
2023-04-25T13:11:47.990Z,3.00
2023-04-25T13:14:24.210Z,2.70
2023-04-25T13:17:01.869Z,3.08
2023-04-25T13:19:29.621Z,2.72
2023-04-25T13:21:57.032Z,2.72
2023-04-25T13:24:24.522Z,3.28
2023-04-25T13:26:52.298Z,2.38
2023-04-25T13:29:20.078Z,5.15
2023-04-25T13:31:47.434Z,3.65
2023-04-25T13:34:15.023Z,4.45
2023-04-25T13:36:42.448Z,3.35
2023-04-25T13:39:09.926Z,3.17
2023-04-25T13:41:37.889Z,3.13
2023-04-25T13:44:05.339Z,3.25
2023-04-25T13:46:45.539Z,2.60
2023-04-25T13:49:14.181Z,2.58
2023-04-25T13:51:43.392Z,3.00
2023-04-25T13:54:11.064Z,2.35
2023-04-25T13:56:38.424Z,3.05
2023-04-25T13:59:05.775Z,2.70
2023-04-25T14:01:35.386Z,3.03
2023-04-25T14:04:05.022Z,3.67
2023-04-25T14:06:34.031Z,3.30
2023-04-25T14:09:05.534Z,3.25
2023-04-25T14:11:33.164Z,3.10
2023-04-25T14:14:00.577Z,3.38
2023-04-25T14:16:28.707Z,3.10
2023-04-25T14:18:56.457Z,2.80
2023-04-25T14:21:23.854Z,2.60
2023-04-25T14:23:51.468Z,2.35
2023-04-25T14:26:19.234Z,2.30
2023-04-25T14:28:46.754Z,3.17
2023-04-25T14:31:14.137Z,3.17
2023-04-25T14:33:43.850Z,2.88
2023-04-25T14:36:11.512Z,2.97
2023-04-25T14:38:38.815Z,3.08
2023-04-25T14:41:06.786Z,3.53
2023-04-25T14:43:34.137Z,2.10
2023-04-25T14:46:18.959Z,4.18
2023-04-25T14:48:46.908Z,3.30
2023-04-25T14:51:14.281Z,2.30
2023-04-25T14:53:42.590Z,3.05
2023-04-25T14:56:10.001Z,2.63
2023-04-25T14:58:37.392Z,2.97
2023-04-25T15:01:05.040Z,2.75
2023-04-25T15:03:33.153Z,3.42
2023-04-25T15:06:00.845Z,2.92
2023-04-25T15:08:28.226Z,3.08
2023-04-25T15:10:57.002Z,2.22
2023-04-25T15:13:24.455Z,2.70
2023-04-25T15:15:52.497Z,2.63
2023-04-25T15:18:24.890Z,3.25
2023-04-25T15:20:53.303Z,2.75
2023-04-25T15:23:22.460Z,3.40
2023-04-25T15:25:52.670Z,2.22
2023-04-25T15:28:22.299Z,3.22
2023-04-25T15:30:49.916Z,2.50
2023-04-25T15:33:17.386Z,3.35
2023-04-25T15:35:44.793Z,3.28
2023-04-25T15:38:12.361Z,2.67
2023-04-25T15:40:39.827Z,2.63
2023-04-25T15:43:08.552Z,3.55
2023-04-25T15:45:37.917Z,2.60
2023-04-25T15:48:05.628Z,3.20
2023-04-25T15:50:33.217Z,2.85
2023-04-25T15:53:00.725Z,2.92
2023-04-25T15:55:28.632Z,2.33
2023-04-25T15:57:56.307Z,3.17
2023-04-25T16:00:23.972Z,2.67
2023-04-25T16:02:52.762Z,3.50
2023-04-25T16:05:23.195Z,2.95
2023-04-25T16:07:53.857Z,2.70
2023-04-25T16:10:21.816Z,3.25
2023-04-25T16:12:50.348Z,2.55
2023-04-25T16:15:18.184Z,2.67
2023-04-25T16:17:45.826Z,2.80
2023-04-25T16:20:13.665Z,2.83
2023-04-25T16:22:42.296Z,3.10
2023-04-25T16:25:10.616Z,3.53
2023-04-25T16:27:39.562Z,2.35
2023-04-25T16:30:11.907Z,2.80
2023-04-25T16:32:41.684Z,3.13
2023-04-25T16:35:10.318Z,3.08
2023-04-25T16:37:37.782Z,2.70
2023-04-25T16:40:09.058Z,2.42
2023-04-25T16:42:37.538Z,3.17
2023-04-25T16:45:05.809Z,2.97
2023-04-25T16:47:33.157Z,2.80
2023-04-25T16:50:01.595Z,2.70
2023-04-25T16:52:29.130Z,3.38
2023-04-25T16:54:56.511Z,3.33
2023-04-25T16:57:23.976Z,2.40
2023-04-25T16:59:52.093Z,3.17
2023-04-25T17:02:19.707Z,2.40
2023-04-25T17:04:47.317Z,2.80
2023-04-25T17:07:15.959Z,2.90
2023-04-25T17:09:43.543Z,3.85
2023-04-25T17:12:10.958Z,2.53
2023-04-25T17:14:39.085Z,2.67
2023-04-25T17:17:07.152Z,3.58
2023-04-25T17:19:34.537Z,3.60
2023-04-25T17:22:01.939Z,3.20
2023-04-25T17:24:29.294Z,3.35
2023-04-25T17:26:57.192Z,3.17
2023-04-25T17:29:24.547Z,3.63
2023-04-25T17:31:52.955Z,4.13
2023-04-25T17:34:20.880Z,2.80
2023-04-25T17:36:48.436Z,3.55
2023-04-25T17:39:17.512Z,2.97
2023-04-25T17:41:45.295Z,3.00
2023-04-25T17:44:12.629Z,2.88
2023-04-25T17:46:40.076Z,3.25
2023-04-25T17:49:07.542Z,3.30
2023-04-25T17:51:34.883Z,2.90
2023-04-25T17:54:02.240Z,3.15
2023-04-25T17:56:30.674Z,3.00
2023-04-25T17:58:58.236Z,3.05
2023-04-25T18:01:25.831Z,3.33
2023-04-25T18:03:53.273Z,3.40
2023-04-25T18:06:20.910Z,3.58
2023-04-25T18:08:48.255Z,3.40
2023-04-25T18:11:16.249Z,3.75
2023-04-25T18:13:43.655Z,3.03
2023-04-25T18:16:11.678Z,3.55
2023-04-25T18:18:39.029Z,3.35
2023-04-25T18:21:07.939Z,3.47
2023-04-25T18:23:36.731Z,2.85
2023-04-25T18:26:04.473Z,3.35
2023-04-25T18:28:34.196Z,3.17
2023-04-25T18:31:01.838Z,3.00
2023-04-25T18:33:29.147Z,3.22
2023-04-25T18:35:59.556Z,3.22
2023-04-25T18:41:04.430Z,3.08
2023-04-25T18:43:37.770Z,3.42
2023-04-25T18:51:09.017Z,3.42
2023-04-25T18:53:37.485Z,2.95
2023-04-25T18:56:05.032Z,3.03
2023-04-25T18:58:32.635Z,3.58
2023-04-25T19:01:01.583Z,3.60
2023-04-25T19:03:29.154Z,2.63
2023-04-25T19:05:56.947Z,2.85
2023-04-25T19:08:26.517Z,3.33
2023-04-25T19:10:54.642Z,3.55
2023-04-25T19:13:22.047Z,3.70
2023-04-25T19:15:49.712Z,2.80
2023-04-25T19:18:17.484Z,3.20
2023-04-25T19:20:45.273Z,2.92
2023-04-25T19:23:12.700Z,3.65
2023-04-25T19:25:40.239Z,3.67
2023-04-25T19:28:08.776Z,3.47
2023-04-25T19:30:36.217Z,3.40
2023-04-25T19:33:03.905Z,3.03
2023-04-25T19:35:33.332Z,3.03
2023-04-25T19:38:00.931Z,3.20
2023-04-25T19:40:28.321Z,3.35
2023-04-25T19:42:57.139Z,3.20
2023-04-25T19:45:24.690Z,4.13
2023-04-25T19:47:54.091Z,4.43
2023-04-25T19:50:22.254Z,4.22
2023-04-25T19:52:49.620Z,3.58
2023-04-25T19:55:16.912Z,4.07
2023-04-25T19:57:44.339Z,3.15
2023-04-25T20:00:19.262Z,3.85
2023-04-25T20:02:48.040Z,3.63
2023-04-25T20:05:17.000Z,3.97
2023-04-25T20:07:44.425Z,4.00
2023-04-25T20:10:16.515Z,4.15
2023-04-25T20:12:44.731Z,4.72
2023-04-25T20:15:12.326Z,4.00
2023-04-25T20:17:41.735Z,3.90
2023-04-25T20:20:10.913Z,5.28
2023-04-25T20:22:40.130Z,4.72
2023-04-25T20:25:09.910Z,4.40
2023-04-25T20:27:40.433Z,5.28
2023-04-25T20:30:09.661Z,5.10
2023-04-25T20:32:37.687Z,4.72
2023-04-25T20:35:07.843Z,5.70
2023-04-25T20:37:36.182Z,5.05
2023-04-25T20:40:07.869Z,4.65
2023-04-25T20:42:36.314Z,5.00
2023-04-25T20:45:07.610Z,5.82
2023-04-25T20:47:35.423Z,5.28
2023-04-25T20:50:06.015Z,5.80
2023-04-25T20:52:33.816Z,5.85
2023-04-25T20:55:01.460Z,5.28
2023-04-25T20:57:29.320Z,5.93
2023-04-25T20:59:57.358Z,5.95
2023-04-25T21:02:24.904Z,6.30
2023-04-25T21:04:52.367Z,6.63
2023-04-25T21:07:20.041Z,6.32
2023-04-25T21:09:48.000Z,7.10
2023-04-25T21:12:15.366Z,6.85
2023-04-25T21:14:42.647Z,7.15
2023-04-25T21:17:10.075Z,7.28
2023-04-25T21:19:37.408Z,7.25
2023-04-25T21:22:04.760Z,6.65
2023-04-25T21:24:33.254Z,7.10
2023-04-25T21:27:01.410Z,7.20
2023-04-25T21:29:29.038Z,6.93
2023-04-25T21:31:56.864Z,5.85
2023-04-25T21:34:24.244Z,6.95
2023-04-25T21:36:51.541Z,5.97
2023-04-25T21:39:19.990Z,7.00
2023-04-25T21:41:48.518Z,6.15
2023-04-25T21:44:15.934Z,7.28
2023-04-25T21:46:43.644Z,5.97
2023-04-25T21:49:11.475Z,6.78
2023-04-25T21:51:38.902Z,6.35
2023-04-25T21:54:06.781Z,5.80
2023-04-25T21:56:34.062Z,5.85
2023-04-25T21:59:01.529Z,5.35
2023-04-25T22:01:29.340Z,4.80
2023-04-25T22:03:56.728Z,5.30
2023-04-25T22:06:24.192Z,5.25
2023-04-25T22:08:52.027Z,4.82
2023-04-25T22:11:19.556Z,5.00
2023-04-25T22:13:46.869Z,5.10
2023-04-25T22:16:14.271Z,4.40
2023-04-25T22:18:42.275Z,4.82
2023-04-25T22:21:10.236Z,4.43
2023-04-25T22:23:37.601Z,5.40
2023-04-25T22:26:05.332Z,4.68
2023-04-25T22:28:33.817Z,5.40
2023-04-25T22:31:01.187Z,5.25
2023-04-25T22:33:28.577Z,5.75
2023-04-25T22:35:56.252Z,5.43
2023-04-25T22:38:23.572Z,5.95
2023-04-25T22:40:51.858Z,6.38
2023-04-25T22:43:19.970Z,5.05
2023-04-25T22:45:47.504Z,4.72
2023-04-25T22:48:14.906Z,5.38
2023-04-25T22:50:42.420Z,5.28
2023-04-25T22:53:13.313Z,5.35
2023-04-25T22:55:40.857Z,5.45
2023-04-25T22:58:09.657Z,5.60
2023-04-25T23:00:37.747Z,6.03
2023-04-25T23:03:05.990Z,5.78
2023-04-25T23:05:33.593Z,6.25
2023-04-25T23:08:00.899Z,6.97
2023-04-25T23:10:28.603Z,6.72
2023-04-25T23:12:58.174Z,7.10
2023-04-25T23:15:30.985Z,6.10
2023-04-25T23:17:58.735Z,6.20
2023-04-25T23:20:26.697Z,6.30
2023-04-25T23:22:55.047Z,6.35
2023-04-25T23:25:22.383Z,6.80
2023-04-25T23:27:49.692Z,6.18
2023-04-25T23:30:28.561Z,6.35
2023-04-25T23:33:23.404Z,6.63
2023-04-25T23:36:10.616Z,6.80
2023-04-25T23:42:02.928Z,6.28
2023-04-25T23:44:46.235Z,6.35
2023-04-25T23:47:23.502Z,6.47
2023-04-25T23:50:51.111Z,6.05
2023-04-25T23:53:53.927Z,5.53
